createdAt,value
2018-11-03T16:57:00.292Z,11.60
2018-11-03T16:59:29.762Z,11.70
2018-11-03T17:01:59.749Z,11.80
2018-11-03T17:04:29.270Z,11.80
2018-11-03T17:06:58.981Z,11.80
2018-11-03T17:09:28.658Z,11.90
2018-11-03T17:11:58.415Z,12.00
2018-11-03T17:14:28.663Z,12.10
2018-11-03T17:16:58.943Z,12.20
2018-11-03T17:19:29.020Z,12.20
2018-11-03T17:21:59.018Z,12.30
2018-11-03T17:24:28.421Z,12.40
2018-11-03T17:26:58.483Z,12.50
2018-11-03T17:29:27.993Z,12.50
2018-11-03T17:31:57.476Z,12.50
2018-11-03T17:34:27.218Z,12.60
2018-11-03T17:36:57.617Z,12.60
2018-11-03T17:39:27.582Z,12.70
2018-11-03T17:41:58.212Z,12.90
2018-11-03T17:44:28.976Z,13.00
2018-11-03T17:46:59.445Z,13.00
2018-11-03T17:49:29.554Z,12.90
2018-11-03T17:51:59.433Z,12.90
2018-11-03T17:54:28.784Z,12.80
2018-11-03T17:56:58.473Z,12.80
2018-11-03T17:59:28.210Z,12.80
2018-11-03T18:01:58.027Z,12.70
2018-11-03T18:04:27.418Z,12.70
2018-11-03T18:06:57.074Z,12.60
2018-11-03T18:09:26.573Z,12.60
2018-11-03T18:11:57.292Z,12.60
2018-11-03T18:14:27.323Z,12.60
2018-11-03T18:16:56.817Z,12.60
2018-11-03T18:19:27.888Z,12.60
2018-11-03T18:21:57.570Z,12.60
2018-11-03T18:24:28.259Z,12.50
2018-11-03T18:26:58.918Z,12.50
2018-11-03T18:29:29.286Z,12.50
2018-11-03T18:31:59.207Z,12.50
2018-11-03T18:34:28.514Z,12.50
2018-11-03T18:36:59.386Z,12.50
2018-11-03T18:39:29.049Z,12.40
2018-11-03T18:41:58.583Z,12.40
2018-11-03T18:44:28.627Z,12.50
2018-11-03T18:46:59.436Z,12.60
2018-11-03T18:49:30.088Z,12.60
2018-11-03T18:51:59.686Z,12.60
2018-11-03T18:54:29.495Z,12.70
2018-11-03T18:56:59.142Z,12.70
2018-11-03T18:59:28.652Z,12.80
2018-11-03T19:01:58.351Z,12.80
2018-11-03T19:04:27.512Z,12.80
2018-11-03T19:06:57.145Z,12.80
2018-11-03T19:09:26.749Z,12.90
2018-11-03T19:11:56.309Z,12.90
2018-11-03T19:14:25.931Z,12.90
2018-11-03T19:16:57.884Z,12.90
2018-11-03T19:19:27.623Z,12.90
2018-11-03T19:21:57.217Z,12.90
2018-11-03T19:24:26.927Z,13.00
2018-11-03T19:26:57.577Z,13.00
2018-11-03T19:29:27.832Z,13.00
2018-11-03T19:31:58.788Z,13.00
2018-11-03T19:34:28.199Z,12.90
2018-11-03T19:36:57.745Z,12.90
2018-11-03T19:39:27.291Z,12.80
2018-11-03T19:41:56.895Z,12.90
2018-11-03T19:44:28.123Z,12.90
2018-11-03T19:46:57.734Z,13.00
2018-11-03T19:49:28.278Z,13.00
2018-11-03T19:51:58.632Z,13.00
2018-11-03T19:54:28.342Z,13.00
2018-11-03T19:56:57.609Z,13.00
2018-11-03T19:59:27.249Z,13.00
2018-11-03T20:01:58.194Z,12.90
2018-11-03T20:04:27.532Z,12.90
2018-11-03T20:06:57.045Z,12.90
2018-11-03T20:09:26.566Z,12.90
2018-11-03T20:11:55.909Z,12.90
2018-11-03T20:14:25.659Z,12.90
2018-11-03T20:16:56.790Z,13.00
2018-11-03T20:19:27.529Z,13.00
2018-11-03T20:21:56.959Z,12.90
2018-11-03T20:24:26.381Z,13.00
2018-11-03T20:26:56.066Z,12.90
2018-11-03T20:29:26.367Z,13.00
2018-11-03T20:31:56.799Z,13.00
2018-11-03T20:34:26.361Z,13.00
2018-11-03T20:36:55.961Z,13.00
2018-11-03T20:39:25.504Z,12.90
2018-11-03T20:41:55.492Z,12.80
2018-11-03T20:44:25.079Z,12.80
2018-11-03T20:46:54.663Z,12.90
2018-11-03T20:49:27.343Z,12.90
2018-11-03T20:51:56.858Z,12.90
2018-11-03T20:54:27.353Z,12.90
2018-11-03T20:56:57.648Z,12.90
2018-11-03T20:59:27.373Z,12.80
2018-11-03T21:01:59.352Z,12.90
2018-11-03T21:04:29.842Z,12.90
2018-11-03T21:06:59.691Z,12.90
2018-11-03T21:09:30.535Z,12.90
2018-11-03T21:12:01.517Z,12.90
2018-11-03T21:14:34.026Z,12.90
2018-11-03T21:17:05.910Z,12.90
2018-11-03T21:19:37.458Z,12.80
2018-11-03T21:22:10.845Z,12.80
2018-11-03T21:24:40.259Z,12.80
2018-11-03T21:27:11.376Z,12.90
2018-11-03T21:29:40.889Z,12.90
2018-11-03T21:32:10.639Z,13.00
2018-11-03T21:34:40.486Z,13.00
2018-11-03T21:37:10.076Z,13.00
2018-11-03T21:39:39.763Z,13.00
2018-11-03T21:42:09.476Z,13.00
2018-11-03T21:44:39.545Z,13.10
2018-11-03T21:47:09.073Z,13.10
2018-11-03T21:49:39.204Z,13.10
2018-11-03T21:52:08.756Z,13.00
2018-11-03T21:54:38.350Z,13.00
2018-11-03T21:57:07.801Z,12.90
2018-11-03T21:59:38.098Z,13.00
2018-11-03T22:02:08.630Z,13.00
2018-11-03T22:04:39.473Z,13.00
2018-11-03T22:07:09.477Z,13.00
2018-11-03T22:09:40.352Z,13.00
2018-11-03T22:12:11.894Z,12.90
2018-11-03T22:14:41.867Z,12.90
2018-11-03T22:17:12.033Z,12.80
2018-11-03T22:19:41.999Z,12.70
2018-11-03T22:22:11.668Z,12.70
2018-11-03T22:24:43.094Z,12.80
2018-11-03T22:27:13.549Z,12.70
2018-11-03T22:29:43.051Z,12.60
2018-11-03T22:32:15.776Z,12.60
2018-11-03T22:34:45.575Z,12.60
2018-11-03T22:37:16.045Z,12.70
2018-11-03T22:39:46.089Z,12.70
2018-11-03T22:42:15.543Z,12.70
2018-11-03T22:44:45.371Z,12.70
2018-11-03T22:47:15.288Z,12.70
2018-11-03T22:49:45.457Z,12.70
2018-11-03T22:52:15.091Z,12.60
2018-11-03T22:54:44.668Z,12.70
2018-11-03T22:57:14.129Z,12.70
2018-11-03T22:59:44.098Z,12.60
2018-11-03T23:02:14.634Z,12.60
2018-11-03T23:04:44.406Z,12.50
2018-11-03T23:07:14.230Z,12.60
2018-11-03T23:09:43.995Z,12.60
2018-11-03T23:12:13.448Z,12.60
2018-11-03T23:14:42.937Z,12.70
2018-11-03T23:17:12.865Z,12.70
2018-11-03T23:19:42.741Z,12.70
2018-11-03T23:22:12.538Z,12.60
2018-11-03T23:24:41.902Z,12.60
2018-11-03T23:27:11.695Z,12.60
2018-11-03T23:29:41.642Z,12.60
2018-11-03T23:32:11.453Z,12.60
2018-11-03T23:34:41.140Z,12.70
2018-11-03T23:37:10.753Z,12.60
2018-11-03T23:39:41.255Z,12.60
2018-11-03T23:42:10.725Z,12.60
2018-11-03T23:44:40.210Z,12.60
2018-11-03T23:47:10.119Z,12.50
2018-11-03T23:49:40.878Z,12.60
2018-11-03T23:52:10.749Z,12.60
2018-11-03T23:54:40.746Z,12.60
2018-11-03T23:57:11.416Z,12.60
2018-11-03T23:59:42.364Z,12.60
